createdAt,value
2023-02-03T00:01:48.913Z,0.15
2023-02-03T00:04:16.213Z,0.16
2023-02-03T00:06:43.390Z,0.19
2023-02-03T00:09:10.274Z,0.12
2023-02-03T00:11:37.029Z,0.19
2023-02-03T00:14:05.542Z,0.18
2023-02-03T00:16:35.993Z,0.17
2023-02-03T00:19:02.786Z,0.18
2023-02-03T00:21:29.439Z,0.29
2023-02-03T00:23:56.076Z,0.37
2023-02-03T00:26:24.186Z,0.32
2023-02-03T00:28:50.819Z,0.30
2023-02-03T00:31:20.134Z,0.36
2023-02-03T00:33:47.500Z,0.37
2023-02-03T00:36:14.738Z,0.51
2023-02-03T00:38:44.209Z,0.47
2023-02-03T00:41:10.828Z,0.51
2023-02-03T00:43:37.421Z,0.49
2023-02-03T00:46:04.106Z,0.40
2023-02-03T00:48:30.744Z,0.35
2023-02-03T00:50:57.435Z,0.42
2023-02-03T00:53:24.106Z,0.43
2023-02-03T00:55:52.082Z,0.51
2023-02-03T00:58:18.837Z,0.42
2023-02-03T01:00:45.527Z,0.42
2023-02-03T01:03:12.286Z,0.47
2023-02-03T01:05:38.949Z,0.62
2023-02-03T01:08:05.801Z,0.54
2023-02-03T01:10:32.488Z,0.51
2023-02-03T01:12:59.133Z,0.53
2023-02-03T01:15:25.812Z,0.54
2023-02-03T01:17:52.510Z,0.51
2023-02-03T01:20:19.303Z,0.55
2023-02-03T01:22:45.959Z,0.56
2023-02-03T01:25:14.764Z,0.62
2023-02-03T01:27:41.494Z,0.60
2023-02-03T01:30:08.705Z,0.58
2023-02-03T01:32:35.355Z,0.46
2023-02-03T01:35:01.953Z,0.51
2023-02-03T01:37:28.531Z,0.53
2023-02-03T01:39:55.209Z,0.50
2023-02-03T01:42:21.918Z,0.55
2023-02-03T01:44:55.217Z,0.54
2023-02-03T01:47:29.915Z,0.51
2023-02-03T01:50:19.550Z,0.54
2023-02-03T01:53:02.480Z,0.52
2023-02-03T01:55:49.020Z,0.46
2023-02-03T01:58:26.503Z,0.51
2023-02-03T02:00:54.363Z,0.50
2023-02-03T02:03:25.553Z,0.56
2023-02-03T02:06:03.153Z,0.55
2023-02-03T02:08:30.950Z,0.49
2023-02-03T02:10:59.514Z,0.52
2023-02-03T02:13:27.327Z,0.48
2023-02-03T02:16:22.603Z,0.46
2023-02-03T02:19:38.357Z,0.55
2023-02-03T02:22:30.711Z,0.59
2023-02-03T02:25:23.949Z,0.47
2023-02-03T02:27:56.860Z,0.47
2023-02-03T02:30:29.600Z,0.46
2023-02-03T02:33:21.842Z,0.50
2023-02-03T02:36:07.892Z,0.42
2023-02-03T02:38:43.544Z,0.41
2023-02-03T02:41:22.223Z,0.36
2023-02-03T02:44:18.620Z,0.37
2023-02-03T02:46:49.651Z,0.42
2023-02-03T02:49:23.014Z,0.44
2023-02-03T02:51:50.866Z,0.49
2023-02-03T02:54:24.628Z,0.49
2023-02-03T02:56:58.742Z,0.60
2023-02-03T02:59:25.420Z,0.54
2023-02-03T03:01:52.135Z,0.57
2023-02-03T03:04:24.902Z,0.58
2023-02-03T03:06:57.125Z,0.54
2023-02-03T03:09:36.924Z,0.60
2023-02-03T03:12:07.241Z,0.57
2023-02-03T03:14:36.599Z,0.62
2023-02-03T03:17:07.741Z,0.59
2023-02-03T03:19:49.394Z,0.60
2023-02-03T03:22:18.366Z,0.58
2023-02-03T03:24:50.697Z,0.47
2023-02-03T03:27:26.833Z,0.53
2023-02-03T03:29:58.231Z,0.60
2023-02-03T03:32:28.071Z,0.60
2023-02-03T03:34:55.900Z,0.63
2023-02-03T03:37:45.816Z,0.51
2023-02-03T03:40:20.482Z,0.42
2023-02-03T03:42:57.466Z,0.51
2023-02-03T03:45:43.852Z,0.55
2023-02-03T03:48:25.431Z,0.59
2023-02-03T03:50:59.681Z,0.58
2023-02-03T03:53:29.045Z,0.54
2023-02-03T03:55:59.639Z,0.51
2023-02-03T03:58:33.507Z,0.51
2023-02-03T04:01:02.964Z,0.52
2023-02-03T04:03:40.883Z,0.50
2023-02-03T04:06:07.718Z,0.48
2023-02-03T04:08:34.500Z,0.40
2023-02-03T04:11:01.223Z,0.39
2023-02-03T04:13:27.838Z,0.34
2023-02-03T04:15:54.536Z,0.38
2023-02-03T04:18:21.174Z,0.35
2023-02-03T04:20:48.302Z,0.42
2023-02-03T04:23:14.963Z,0.45
2023-02-03T04:25:41.547Z,0.42
2023-02-03T04:28:08.219Z,0.40
2023-02-03T04:30:35.043Z,0.40
2023-02-03T04:33:01.748Z,0.39
2023-02-03T04:35:28.444Z,0.32
2023-02-03T04:37:55.104Z,0.33
2023-02-03T04:40:21.755Z,0.43
2023-02-03T04:42:48.413Z,0.36
2023-02-03T04:45:15.108Z,0.35
2023-02-03T04:47:41.750Z,0.33
2023-02-03T04:50:08.902Z,0.32
2023-02-03T04:52:35.577Z,0.41
2023-02-03T04:55:04.057Z,0.33
2023-02-03T04:57:30.849Z,0.31
2023-02-03T04:59:57.502Z,0.28
2023-02-03T05:02:24.110Z,0.27
2023-02-03T05:04:50.788Z,0.30
2023-02-03T05:07:17.459Z,0.28
2023-02-03T05:09:44.092Z,0.20
2023-02-03T05:12:10.735Z,0.12
2023-02-03T05:14:37.320Z,0.10
2023-02-03T05:17:04.009Z,0.19
2023-02-03T05:19:30.601Z,0.14
2023-02-03T05:21:57.215Z,0.08
2023-02-03T05:24:23.823Z,0.01
2023-02-03T05:26:50.475Z,0.09
2023-02-03T05:29:17.134Z,0.07
2023-02-03T05:31:46.587Z,0.10
2023-02-03T05:34:13.175Z,0.02
2023-02-03T05:36:39.875Z,0.10
2023-02-03T05:39:06.490Z,0.15
2023-02-03T05:41:55.778Z,0.13
2023-02-03T05:44:26.576Z,0.14
2023-02-03T05:46:54.797Z,0.11
2023-02-03T05:49:23.265Z,0.19
2023-02-03T05:51:52.134Z,0.13
2023-02-03T05:54:19.373Z,0.14
2023-02-03T05:56:46.097Z,0.23
2023-02-03T05:59:15.289Z,0.22
2023-02-03T06:01:41.909Z,0.27
2023-02-03T06:04:08.669Z,0.33
2023-02-03T06:06:35.558Z,0.34
2023-02-03T06:09:04.782Z,0.38
2023-02-03T06:11:32.259Z,0.40
2023-02-03T06:13:59.558Z,0.43
2023-02-03T06:16:28.056Z,0.46
2023-02-03T06:18:59.664Z,0.46
2023-02-03T06:21:27.006Z,0.49
2023-02-03T06:23:53.648Z,0.49
2023-02-03T06:26:20.376Z,0.44
2023-02-03T06:28:47.785Z,0.52
2023-02-03T06:31:14.773Z,0.51
2023-02-03T06:33:41.407Z,0.48
2023-02-03T06:36:08.493Z,0.57
2023-02-03T06:38:35.292Z,0.63
2023-02-03T06:41:02.089Z,0.65
2023-02-03T06:43:28.829Z,0.66
2023-02-03T06:45:55.562Z,0.67
2023-02-03T06:48:22.364Z,0.68
2023-02-03T06:50:56.075Z,0.67
2023-02-03T06:53:24.767Z,0.73
2023-02-03T06:56:02.214Z,0.76
2023-02-03T06:58:29.135Z,0.80
2023-02-03T07:00:56.591Z,0.81
2023-02-03T07:03:23.390Z,0.77
2023-02-03T07:05:50.082Z,0.85
2023-02-03T07:08:16.803Z,0.90
2023-02-03T07:10:46.404Z,1.04
2023-02-03T07:13:13.169Z,1.15
2023-02-03T07:15:39.854Z,1.19
2023-02-03T07:18:06.580Z,1.18
2023-02-03T07:20:33.288Z,1.17
2023-02-03T07:22:59.920Z,1.23
2023-02-03T07:25:26.925Z,1.25
2023-02-03T07:27:54.156Z,1.21
2023-02-03T07:30:21.063Z,1.12
2023-02-03T07:32:52.057Z,1.09
2023-02-03T07:35:20.088Z,1.20
2023-02-03T07:37:46.940Z,1.29
2023-02-03T07:40:14.602Z,1.41
2023-02-03T07:42:50.248Z,1.42
2023-02-03T07:45:18.577Z,1.49
2023-02-03T07:47:45.403Z,1.47
2023-02-03T07:50:12.751Z,1.60
2023-02-03T07:52:39.919Z,1.51
2023-02-03T07:55:07.219Z,1.53
2023-02-03T07:57:34.017Z,1.58
2023-02-03T08:00:01.088Z,1.61
2023-02-03T08:02:27.754Z,1.63
2023-02-03T08:04:54.539Z,1.65
2023-02-03T08:07:21.234Z,1.56
2023-02-03T08:09:47.878Z,1.56
2023-02-03T08:12:14.525Z,1.59
2023-02-03T08:14:41.106Z,1.64
2023-02-03T08:17:07.777Z,1.68
2023-02-03T08:19:35.387Z,1.71
2023-02-03T08:22:02.077Z,1.81
2023-02-03T08:24:28.690Z,1.86
2023-02-03T08:26:55.380Z,1.85
2023-02-03T08:29:22.143Z,1.67
2023-02-03T08:31:48.966Z,1.70
2023-02-03T08:34:15.758Z,1.64
2023-02-03T08:36:43.952Z,1.52
2023-02-03T08:39:11.013Z,1.66
2023-02-03T08:41:37.845Z,1.92
2023-02-03T08:44:04.656Z,2.12
2023-02-03T08:46:31.423Z,2.28
2023-02-03T08:48:58.143Z,2.26
2023-02-03T08:51:24.971Z,2.28
2023-02-03T08:53:52.174Z,2.17
2023-02-03T08:56:19.024Z,2.34
2023-02-03T08:58:45.757Z,2.26
2023-02-03T09:01:14.843Z,2.22
2023-02-03T09:03:41.724Z,2.46
2023-02-03T09:06:11.869Z,2.35
2023-02-03T09:08:39.178Z,2.24
2023-02-03T09:11:17.137Z,2.46
2023-02-03T09:13:47.117Z,2.37
2023-02-03T09:16:17.408Z,2.33
2023-02-03T09:18:44.875Z,2.14
2023-02-03T09:21:20.928Z,2.20
2023-02-03T09:23:54.351Z,2.04
2023-02-03T09:26:21.034Z,2.03
2023-02-03T09:28:47.703Z,1.96
2023-02-03T09:31:18.016Z,2.03
2023-02-03T09:33:44.685Z,2.02
2023-02-03T09:36:12.059Z,1.72
2023-02-03T09:38:39.682Z,1.45
2023-02-03T09:41:27.823Z,1.93
2023-02-03T09:44:22.761Z,1.98
2023-02-03T09:46:55.794Z,1.86
2023-02-03T09:49:50.725Z,1.84
2023-02-03T09:52:28.539Z,1.88
2023-02-03T09:55:02.757Z,1.89
2023-02-03T09:57:40.895Z,1.97
2023-02-03T10:00:21.350Z,2.14
2023-02-03T10:02:54.386Z,2.28
2023-02-03T10:05:59.712Z,2.34
2023-02-03T10:08:35.505Z,2.57
2023-02-03T10:11:18.944Z,2.48
2023-02-03T10:14:01.100Z,2.57
2023-02-03T10:16:46.439Z,2.11
2023-02-03T10:19:25.863Z,2.36
2023-02-03T10:21:59.089Z,2.53
2023-02-03T10:24:30.444Z,2.45
2023-02-03T10:26:57.421Z,2.66
2023-02-03T10:29:36.218Z,2.72
2023-02-03T10:32:03.091Z,2.33
2023-02-03T10:34:29.839Z,2.12
2023-02-03T10:36:59.065Z,2.37
2023-02-03T10:39:28.654Z,2.64
2023-02-03T10:41:56.092Z,2.87
2023-02-03T10:44:32.552Z,3.00
2023-02-03T10:47:01.777Z,3.08
2023-02-03T10:49:33.038Z,2.82
2023-02-03T10:52:03.431Z,2.59
2023-02-03T10:54:35.640Z,2.64
2023-02-03T10:57:11.610Z,2.63
2023-02-03T10:59:42.748Z,2.72
2023-02-03T11:02:21.638Z,2.71
2023-02-03T11:04:48.470Z,2.85
2023-02-03T11:07:26.958Z,3.15
2023-02-03T11:09:53.673Z,3.14
2023-02-03T11:12:20.532Z,2.92
2023-02-03T11:14:54.098Z,3.02
2023-02-03T11:17:24.076Z,3.01
2023-02-03T11:19:53.111Z,3.28
2023-02-03T11:22:36.653Z,2.70
2023-02-03T11:25:16.253Z,2.87
2023-02-03T11:27:43.682Z,2.72
2023-02-03T11:30:18.178Z,2.95
2023-02-03T11:32:46.868Z,2.46
2023-02-03T11:35:16.020Z,2.87
2023-02-03T11:37:47.551Z,3.09
2023-02-03T11:40:20.131Z,2.88
2023-02-03T11:42:49.842Z,2.81
2023-02-03T11:45:34.976Z,3.12
2023-02-03T11:48:07.273Z,2.78
2023-02-03T11:51:12.531Z,2.73
2023-02-03T11:53:56.864Z,3.10
2023-02-03T11:56:44.917Z,2.82
2023-02-03T11:59:30.544Z,2.76
2023-02-03T12:02:09.892Z,2.90
2023-02-03T12:05:24.369Z,2.97
2023-02-03T12:08:26.459Z,2.66
2023-02-03T12:11:06.497Z,3.17
2023-02-03T12:14:04.922Z,3.06
2023-02-03T12:16:40.788Z,3.22
2023-02-03T12:19:36.403Z,3.00
2023-02-03T12:22:03.039Z,3.11
2023-02-03T12:25:07.701Z,2.78
2023-02-03T12:28:01.617Z,2.73
2023-02-03T12:30:39.255Z,2.79
2023-02-03T12:33:23.981Z,3.05
2023-02-03T12:35:57.801Z,2.78
2023-02-03T12:38:52.489Z,2.98
2023-02-03T12:41:25.493Z,2.86
2023-02-03T12:43:55.176Z,2.74
2023-02-03T12:46:28.172Z,2.71
2023-02-03T12:48:58.762Z,2.48
2023-02-03T12:51:36.416Z,2.48
2023-02-03T12:54:26.594Z,2.46
2023-02-03T12:56:58.248Z,2.46
2023-02-03T12:59:30.270Z,2.52
2023-02-03T13:02:03.318Z,2.54
2023-02-03T13:04:57.149Z,2.32
2023-02-03T13:07:38.427Z,2.42
2023-02-03T13:10:20.119Z,2.58
2023-02-03T13:12:51.853Z,2.61
2023-02-03T13:15:21.489Z,2.53
2023-02-03T13:18:03.954Z,2.33
2023-02-03T13:20:36.337Z,2.11
2023-02-03T13:23:10.647Z,1.98
2023-02-03T13:25:54.083Z,2.01
2023-02-03T13:29:02.349Z,2.22
2023-02-03T13:31:32.032Z,2.24
2023-02-03T13:34:14.059Z,2.27
2023-02-03T13:37:14.071Z,2.43
2023-02-03T13:39:45.719Z,2.45
2023-02-03T13:42:18.781Z,2.33
2023-02-03T13:44:51.583Z,2.26
2023-02-03T13:47:25.437Z,2.36
2023-02-03T13:50:18.036Z,2.11
2023-02-03T13:52:59.078Z,2.07
2023-02-03T13:55:39.490Z,2.25
2023-02-03T13:58:18.898Z,2.37
2023-02-03T14:00:45.636Z,2.35
2023-02-03T14:03:39.279Z,2.28
2023-02-03T14:06:30.677Z,2.13
2023-02-03T14:09:00.479Z,2.05
2023-02-03T14:11:36.504Z,2.05
2023-02-03T14:14:09.739Z,1.97
2023-02-03T14:16:41.251Z,1.90
2023-02-03T14:19:13.386Z,1.85
2023-02-03T14:21:53.888Z,1.74
2023-02-03T14:24:22.651Z,1.66
2023-02-03T14:26:55.503Z,1.66
2023-02-03T14:29:36.703Z,1.61
2023-02-03T14:32:12.219Z,1.59
2023-02-03T14:34:45.321Z,1.58
2023-02-03T14:37:30.971Z,1.61
2023-02-03T14:40:11.957Z,1.42
2023-02-03T14:43:04.892Z,1.40
2023-02-03T14:46:10.634Z,1.30
2023-02-03T14:48:55.507Z,1.33
2023-02-03T14:51:30.143Z,1.28
2023-02-03T14:54:05.843Z,1.24
2023-02-03T14:57:06.469Z,1.18
2023-02-03T15:00:05.828Z,1.28
2023-02-03T15:02:40.852Z,1.28
2023-02-03T15:05:13.909Z,1.19
2023-02-03T15:07:46.643Z,1.18
2023-02-03T15:10:21.441Z,1.08
2023-02-03T15:12:52.091Z,1.08
2023-02-03T15:15:30.387Z,1.00
2023-02-03T15:18:00.824Z,0.98
2023-02-03T15:20:43.609Z,0.95
2023-02-03T15:23:28.923Z,0.89
2023-02-03T15:26:06.790Z,0.77
2023-02-03T15:28:33.556Z,0.66
2023-02-03T15:31:20.383Z,0.56
2023-02-03T15:33:50.028Z,0.49
2023-02-03T15:36:36.091Z,0.44
2023-02-03T15:39:11.407Z,0.39
2023-02-03T15:41:40.378Z,0.43
2023-02-03T15:44:17.096Z,0.45
2023-02-03T15:46:52.115Z,0.47
2023-02-03T15:49:29.007Z,0.47
2023-02-03T15:52:04.691Z,0.44
2023-02-03T15:54:42.936Z,0.37
2023-02-03T15:57:18.250Z,0.36
2023-02-03T15:59:51.972Z,0.33
2023-02-03T16:02:22.792Z,0.36
2023-02-03T16:04:50.513Z,0.30
2023-02-03T16:07:29.481Z,0.26
2023-02-03T16:10:01.364Z,0.27
2023-02-03T16:12:30.485Z,0.25
2023-02-03T16:14:59.116Z,0.24
2023-02-03T16:17:35.785Z,0.28
2023-02-03T16:20:11.434Z,0.26
2023-02-03T16:22:44.520Z,0.22
2023-02-03T16:25:22.078Z,0.15
2023-02-03T16:28:19.553Z,0.11
2023-02-03T16:31:17.824Z,0.05
2023-02-03T16:34:08.778Z,0.05
2023-02-03T16:36:59.173Z,-0.03
2023-02-03T16:39:45.552Z,-0.01
2023-02-03T16:42:58.063Z,0.01
2023-02-03T16:45:44.097Z,-0.07
2023-02-03T16:48:31.066Z,-0.16
2023-02-03T16:51:06.808Z,-0.26
2023-02-03T16:53:33.801Z,-0.29
2023-02-03T16:56:04.500Z,-0.33
2023-02-03T16:58:32.081Z,-0.39
2023-02-03T17:01:01.444Z,-0.50
2023-02-03T17:03:29.470Z,-0.52
2023-02-03T17:05:57.644Z,-0.51
2023-02-03T17:08:26.044Z,-0.56
2023-02-03T17:10:52.764Z,-0.57
2023-02-03T17:13:21.359Z,-0.61
2023-02-03T17:15:52.727Z,-0.67
2023-02-03T17:18:20.120Z,-0.67
2023-02-03T17:20:47.448Z,-0.73
2023-02-03T17:23:16.257Z,-0.79
2023-02-03T17:25:49.106Z,-0.77
2023-02-03T17:28:16.685Z,-0.77
2023-02-03T17:30:46.550Z,-0.79
2023-02-03T17:33:15.673Z,-0.91
2023-02-03T17:35:45.267Z,-0.90
2023-02-03T17:38:15.050Z,-0.88
2023-02-03T17:54:35.862Z,-0.52
2023-02-03T17:57:03.205Z,-0.51
2023-02-03T17:59:29.979Z,-0.52
2023-02-03T18:01:56.671Z,-0.50
2023-02-03T18:04:23.608Z,-0.51
2023-02-03T18:06:52.646Z,-0.56
2023-02-03T18:09:19.791Z,-0.61
2023-02-03T18:11:50.071Z,-0.60
2023-02-03T18:14:18.180Z,-0.51
2023-02-03T18:17:57.732Z,-0.53
2023-02-03T18:19:46.643Z,-0.58
2023-02-03T18:22:15.857Z,-0.59
2023-02-03T18:28:04.427Z,-0.54
2023-02-03T18:30:39.266Z,-0.52
2023-02-03T18:33:42.971Z,-0.51
2023-02-03T18:36:12.892Z,-0.55
2023-02-03T18:38:41.548Z,-0.56
2023-02-03T18:41:20.066Z,-0.58
2023-02-03T18:43:49.226Z,-0.57
2023-02-03T18:46:25.262Z,-0.52
2023-02-03T18:48:55.448Z,-0.52
2023-02-03T18:51:27.584Z,-0.55
2023-02-03T18:54:01.774Z,-0.54
2023-02-03T18:56:35.266Z,-0.55
2023-02-03T18:59:07.776Z,-0.57
2023-02-03T19:01:37.998Z,-0.54
2023-02-03T19:04:07.495Z,-0.55
2023-02-03T19:06:40.514Z,-0.48
2023-02-03T19:09:07.603Z,-0.52
2023-02-03T19:11:35.249Z,-0.55
2023-02-03T19:14:02.276Z,-0.56
2023-02-03T19:16:29.159Z,-0.49
2023-02-03T19:18:55.869Z,-0.47
2023-02-03T19:21:22.472Z,-0.47
2023-02-03T19:23:49.136Z,-0.48
2023-02-03T19:26:15.812Z,-0.52
2023-02-03T19:28:42.481Z,-0.43
2023-02-03T19:31:13.197Z,-0.40
2023-02-03T19:33:39.993Z,-0.45
2023-02-03T19:36:13.500Z,-0.48
2023-02-03T19:38:40.297Z,-0.45
2023-02-03T19:41:11.759Z,-0.47
2023-02-03T19:43:41.679Z,-0.42
2023-02-03T19:46:08.582Z,-0.37
2023-02-03T19:48:36.018Z,-0.40
2023-02-03T19:51:02.829Z,-0.40
2023-02-03T19:53:29.551Z,-0.33
2023-02-03T19:55:56.419Z,-0.32
2023-02-03T19:58:24.204Z,-0.41
2023-02-03T20:00:51.832Z,-0.49
2023-02-03T20:03:19.898Z,-0.50
2023-02-03T20:05:47.232Z,-0.48
2023-02-03T20:08:15.004Z,-0.55
2023-02-03T20:10:42.574Z,-0.63
2023-02-03T20:13:12.375Z,-0.60
2023-02-03T20:15:39.441Z,-0.68
2023-02-03T20:18:06.978Z,-0.67
2023-02-03T20:20:34.782Z,-0.73
2023-02-03T20:23:04.323Z,-0.78
2023-02-03T20:25:31.040Z,-0.81
2023-02-03T20:27:59.715Z,-0.84
2023-02-03T20:30:26.530Z,-0.86
2023-02-03T20:32:54.727Z,-0.88
2023-02-03T20:35:23.786Z,-0.90
2023-02-03T20:37:50.644Z,-0.94
2023-02-03T20:40:19.161Z,-0.94
2023-02-03T20:42:46.056Z,-0.97
2023-02-03T20:45:15.440Z,-0.99
2023-02-03T20:47:42.395Z,-1.01
2023-02-03T20:50:22.632Z,-1.01
2023-02-03T20:52:53.057Z,-1.04
2023-02-03T20:55:22.680Z,-1.02
2023-02-03T20:57:51.600Z,-1.02
2023-02-03T21:00:21.269Z,-1.08
2023-02-03T21:03:06.411Z,-1.07
2023-02-03T21:05:38.669Z,-1.04
2023-02-03T21:08:19.565Z,-1.08
2023-02-03T21:10:47.613Z,-1.14
2023-02-03T21:13:25.351Z,-1.21
2023-02-03T21:15:54.967Z,-1.26
2023-02-03T21:18:28.252Z,-1.28
2023-02-03T21:20:54.894Z,-1.24
2023-02-03T21:23:26.013Z,-1.21
2023-02-03T21:25:52.646Z,-1.27
2023-02-03T21:28:28.132Z,-1.30
2023-02-03T21:30:58.973Z,-1.29
2023-02-03T21:33:34.343Z,-1.33
2023-02-03T21:36:01.019Z,-1.36
2023-02-03T21:38:32.678Z,-1.42
2023-02-03T21:41:01.367Z,-1.35
2023-02-03T21:43:33.176Z,-1.38
2023-02-03T21:45:59.928Z,-1.41
2023-02-03T21:48:28.324Z,-1.40
2023-02-03T21:51:14.425Z,-1.48
2023-02-03T21:53:43.693Z,-1.44
2023-02-03T21:56:20.105Z,-1.45
2023-02-03T21:58:48.577Z,-1.48
2023-02-03T22:01:18.697Z,-1.47
2023-02-03T22:03:55.495Z,-1.40
2023-02-03T22:06:27.029Z,-1.40
2023-02-03T22:08:56.140Z,-1.46
2023-02-03T22:11:25.096Z,-1.41
2023-02-03T22:13:52.202Z,-1.42
2023-02-03T22:16:19.059Z,-1.39
2023-02-03T22:18:47.419Z,-1.41
2023-02-03T22:21:14.740Z,-1.39
2023-02-03T22:23:42.248Z,-1.47
2023-02-03T22:26:10.168Z,-1.52
2023-02-03T22:28:37.506Z,-1.49
2023-02-03T22:31:05.309Z,-1.56
2023-02-03T22:33:32.326Z,-1.58
2023-02-03T22:35:58.963Z,-1.56
2023-02-03T22:38:26.155Z,-1.55
2023-02-03T22:40:53.478Z,-1.54
2023-02-03T22:43:20.119Z,-1.54
2023-02-03T22:45:46.874Z,-1.53
2023-02-03T22:48:13.528Z,-1.55
2023-02-03T22:50:40.530Z,-1.55
2023-02-03T22:53:09.279Z,-1.60
2023-02-03T22:55:37.721Z,-1.65
2023-02-03T22:58:05.378Z,-1.68
2023-02-03T23:00:34.811Z,-1.67
2023-02-03T23:03:06.164Z,-1.61
2023-02-03T23:05:32.974Z,-1.63
2023-02-03T23:08:00.773Z,-1.65
2023-02-03T23:10:32.217Z,-1.63
2023-02-03T23:13:02.974Z,-1.69
2023-02-03T23:15:29.793Z,-1.73
2023-02-03T23:17:56.759Z,-1.73
2023-02-03T23:20:23.383Z,-1.66
2023-02-03T23:22:51.147Z,-1.64
2023-02-03T23:25:17.908Z,-1.68
2023-02-03T23:27:44.621Z,-1.61
2023-02-03T23:30:12.518Z,-1.72
2023-02-03T23:32:39.206Z,-1.73
2023-02-03T23:35:24.905Z,-1.78
2023-02-03T23:37:51.561Z,-1.74
2023-02-03T23:40:18.342Z,-1.71
2023-02-03T23:42:45.021Z,-1.70
2023-02-03T23:45:12.717Z,-1.71
2023-02-03T23:47:43.860Z,-1.64
2023-02-03T23:50:12.754Z,-1.64
2023-02-03T23:52:39.609Z,-1.75
2023-02-03T23:55:08.978Z,-1.71
2023-02-03T23:57:35.602Z,-1.74
